The Wales Marathon, Half, 10k and 5k
Skip Navigation Links
Results
Live Leaderboard
LCW Results
Race Stats
Smartphone Results
Race Website
15 Jul 2018
HyperLink
Click your name for detailed results
Page 1 of 17 (826 items)
[1]234567...14151617
Pos
Bib No
Fav
Share
Name
Gun Time
Chip Time
Category
Cat Pos
Gender
Gen Pos
Club
Pace
16072Eamonn KIRK1:20:48.21:20:47.5V451Male1SWANSEA HARRIERS 9.7 m/hr
26081Sean LEADBEATER1:25:48.61:25:47.1MSen1Male2NORTH BRISTOL TRIATHLON CLUB 9.2 m/hr
36353Nicholas SHEEHAN1:26:09.71:26:09.7MSen2Male3LLANELLI AC 9.1 m/hr
45906Andrew GRIGG1:26:53.51:26:53.3MSen3Male4HERNE HILL HARRIERS 9.0 m/hr
56251James PETERS1:26:58.31:26:57.0MSen4Male5RHONDDA TRIATHLON CLUB 9.0 m/hr
65979Carys Mai HUGHES1:27:02.01:27:02.0FSen1Female1  9.0 m/hr
76581Erich LANTSCHNER1:27:50.61:27:47.1V401Male6CARDIFF TRIATHLETES 8.9 m/hr
85956Scott HILL1:28:43.61:28:36.9MSen5Male7RAF TRIATHLON 8.9 m/hr
96140Warren MCINTYRE1:29:03.41:29:02.0V402Male8DUNBOYNE AC 8.8 m/hr
106549Jack ACKERMANN1:29:27.21:29:25.6Junior1Male9MILFORD TRITONS 8.8 m/hr
116604Geraint WILLIAMS1:31:07.71:31:06.3MSen6Male10  8.6 m/hr
126297Stephen REES1:32:25.41:32:22.8V501Male11  8.5 m/hr
136551Craig BARNEY1:32:56.11:32:52.1MSen7Male12  8.5 m/hr
146313Emyr ROBERTS1:34:08.91:33:33.7V403Male13CARDIFF TRIATHLETES 8.3 m/hr
156542Emma WOOKEY1:34:31.31:34:18.8FSen2Female2LLISWERRY RUNNERS 8.3 m/hr
165935David HAWKINS1:34:59.91:34:53.3MSen8Male14CARDIFF TRIATHLETES 8.3 m/hr
176110Daniel MAITLAND1:35:14.61:35:14.0MSen9Male15  8.3 m/hr
186111Thia MALAN1:35:37.71:35:35.0FV451Female3  8.2 m/hr
196611Huw NEALE1:36:02.51:35:56.2MSen10Male16CARDIFF TRIATHLETES 8.2 m/hr
205819Rebecca DUXBURY1:36:09.51:35:54.0FSen3Female4OXFORD TRI CLUB 8.2 m/hr
216432Ryan THOMAS1:36:56.11:36:51.3V404Male17TEAM CEMAIS 8.1 m/hr
226185Edmund MORRIS1:37:00.31:36:52.3MSen11Male18  8.1 m/hr
236198Sally MUNRO1:37:27.61:37:23.8FV401Female5  8.1 m/hr
246176Ray MORGAN1:38:22.61:38:14.5MSen12Male19TORFAEN TRIATHLON CLUB 8.0 m/hr
256299Rhydian RESTON1:38:53.41:37:48.0MSen13Male20  7.9 m/hr
265767Dafydd DAVIES1:39:34.91:39:33.0MSen14Male21  7.9 m/hr
276660Antoinette DUMAYNE1:40:02.91:39:51.5FSen4Female6LLISWERRY RUNNERS 7.9 m/hr
286042Iwan JONES1:40:22.51:40:20.0MSen15Male22  7.8 m/hr
296649David PHILLIPS1:40:24.01:39:35.7V405Male23RUGBY TRIATHLON CLUB 7.8 m/hr
306702Laura CLEMENTS1:40:58.11:40:50.5FSen5Female7CARDIFF TRIATHLETES 7.8 m/hr
316322Phil ROGERS1:41:35.21:41:28.3MSen16Male24  7.7 m/hr
326326Richard ROSSER1:41:41.41:41:18.7MSen17Male25  7.7 m/hr
336439Allan THURSTON1:42:07.91:40:15.7V406Male267OAKS TRI CLUB 7.7 m/hr
345668Gerald BRACE1:42:17.51:42:04.4V452Male27BRACEFITNESS 7.7 m/hr
355914Robert HALL1:42:38.31:41:40.8MSen18Male28CELTIC TRI 7.7 m/hr
365800Paul DAVIS1:42:41.51:42:40.6V407Male29HORSHAM AMPHIBIANS 7.7 m/hr
376639Wayne OLIVER1:42:44.81:42:28.7V408Male30BYNEA CC 7.6 m/hr
386340Tommy SADLER1:42:53.01:42:26.6MSen19Male31  7.6 m/hr
395658Leon BLACK1:43:10.91:43:09.6MSen20Male32RHONDDA TRIATHLON CLUB 7.6 m/hr
405716Michael CLOY1:43:11.71:43:03.6V409Male33  7.6 m/hr
416590Rhys PIPPARD1:43:16.51:43:13.5MSen21Male34  7.6 m/hr
426709Angela CHAMPION1:43:16.61:43:13.7FV402Female8  7.6 m/hr
435909Matthew GWENTER1:43:41.51:43:27.8MSen22Male35NEWT - NEWPORT & EAST WALES TRIATHLON 7.6 m/hr
446682Chris HARDY1:44:14.91:44:07.6MSen23Male36  7.5 m/hr
455890Harry GOFORTH1:44:28.71:44:03.9MSen24Male37ROYAL NAVY TRIATHLON 7.5 m/hr
465697Damian CASWELL1:44:52.01:43:54.6V4010Male38PIRANHA TRI CLUB 7.5 m/hr
476483Dean WEAVER1:44:59.21:44:00.9MSen25Male39SOUTHAMPTON TRIATHLON CLUB 7.5 m/hr
485684Nigel BUNGAY1:45:03.91:44:27.2MSen26Male40PENCOED TRIATHLON CLUB 7.5 m/hr
495972Alyn HOWELLS1:45:10.31:43:22.2V4011Male41TAFF ELY TRIATHLON CLUB 7.5 m/hr
506302Darren RICHARDS1:45:13.31:45:05.7V4012Male42  7.5 m/hr
Page 1 of 17 (826 items)
[1]234567...14151617
fb